sensor_id;sensor_type;location;lat;lon;timestamp;P1;durP1;ratioP1;P2;durP2;ratioP2
12308;SDS011;6217;48.150;17.142;2024-02-21T00:00:41;5.20;;;1.80;;
12308;SDS011;6217;48.150;17.142;2024-02-21T00:04:47;4.80;;;2.28;;
12308;SDS011;6217;48.150;17.142;2024-02-21T00:08:53;3.58;;;1.70;;
12308;SDS011;6217;48.150;17.142;2024-02-21T00:12:59;3.38;;;1.50;;
12308;SDS011;6217;48.150;17.142;2024-02-21T00:17:04;3.75;;;1.92;;
12308;SDS011;6217;48.150;17.142;2024-02-21T00:21:10;3.85;;;1.92;;
12308;SDS011;6217;48.150;17.142;2024-02-21T00:25:23;8.77;;;2.83;;
12308;SDS011;6217;48.150;17.142;2024-02-21T00:29:28;7.43;;;2.83;;
12308;SDS011;6217;48.150;17.142;2024-02-21T00:33:34;8.32;;;2.40;;
12308;SDS011;6217;48.150;17.142;2024-02-21T00:37:40;6.90;;;2.17;;
12308;SDS011;6217;48.150;17.142;2024-02-21T00:41:46;3.40;;;2.75;;
12308;SDS011;6217;48.150;17.142;2024-02-21T00:45:52;4.63;;;2.40;;
12308;SDS011;6217;48.150;17.142;2024-02-21T00:49:58;5.47;;;2.17;;
12308;SDS011;6217;48.150;17.142;2024-02-21T00:54:04;6.40;;;3.20;;
12308;SDS011;6217;48.150;17.142;2024-02-21T00:58:11;5.93;;;2.17;;
12308;SDS011;6217;48.150;17.142;2024-02-21T01:02:17;5.32;;;2.90;;
12308;SDS011;6217;48.150;17.142;2024-02-21T01:06:23;6.10;;;1.83;;
12308;SDS011;6217;48.150;17.142;2024-02-21T01:10:29;5.60;;;2.35;;
12308;SDS011;6217;48.150;17.142;2024-02-21T01:14:35;4.97;;;2.20;;
12308;SDS011;6217;48.150;17.142;2024-02-21T01:18:41;6.65;;;2.78;;
12308;SDS011;6217;48.150;17.142;2024-02-21T01:22:47;11.50;;;3.85;;
12308;SDS011;6217;48.150;17.142;2024-02-21T01:26:53;7.20;;;2.53;;
12308;SDS011;6217;48.150;17.142;2024-02-21T01:30:59;4.90;;;1.83;;
12308;SDS011;6217;48.150;17.142;2024-02-21T01:35:04;4.82;;;2.53;;
12308;SDS011;6217;48.150;17.142;2024-02-21T01:39:11;6.53;;;2.22;;
12308;SDS011;6217;48.150;17.142;2024-02-21T01:43:17;8.57;;;2.20;;
12308;SDS011;6217;48.150;17.142;2024-02-21T01:47:25;6.65;;;2.00;;
12308;SDS011;6217;48.150;17.142;2024-02-21T01:51:31;13.73;;;2.70;;
12308;SDS011;6217;48.150;17.142;2024-02-21T01:55:37;9.50;;;2.63;;
12308;SDS011;6217;48.150;17.142;2024-02-21T01:59:43;6.97;;;2.38;;
12308;SDS011;6217;48.150;17.142;2024-02-21T02:03:50;3.45;;;2.40;;
12308;SDS011;6217;48.150;17.142;2024-02-21T02:07:58;10.88;;;2.70;;
12308;SDS011;6217;48.150;17.142;2024-02-21T02:12:04;5.15;;;2.10;;
12308;SDS011;6217;48.150;17.142;2024-02-21T02:16:10;6.07;;;2.13;;
12308;SDS011;6217;48.150;17.142;2024-02-21T02:20:16;6.53;;;1.80;;
12308;SDS011;6217;48.150;17.142;2024-02-21T02:24:23;7.32;;;2.00;;
12308;SDS011;6217;48.150;17.142;2024-02-21T02:28:31;8.27;;;2.28;;
12308;SDS011;6217;48.150;17.142;2024-02-21T02:32:37;6.88;;;2.72;;
12308;SDS011;6217;48.150;17.142;2024-02-21T02:36:43;7.10;;;1.92;;
12308;SDS011;6217;48.150;17.142;2024-02-21T02:40:49;8.18;;;1.77;;
12308;SDS011;6217;48.150;17.142;2024-02-21T02:44:54;8.10;;;2.10;;
12308;SDS011;6217;48.150;17.142;2024-02-21T02:49:02;7.18;;;2.13;;
12308;SDS011;6217;48.150;17.142;2024-02-21T02:53:08;8.23;;;1.95;;
12308;SDS011;6217;48.150;17.142;2024-02-21T02:57:14;3.47;;;1.88;;
12308;SDS011;6217;48.150;17.142;2024-02-21T03:01:20;4.05;;;1.85;;
12308;SDS011;6217;48.150;17.142;2024-02-21T03:05:25;7.60;;;1.90;;
12308;SDS011;6217;48.150;17.142;2024-02-21T03:09:31;3.55;;;2.65;;
12308;SDS011;6217;48.150;17.142;2024-02-21T03:13:37;7.68;;;2.15;;
12308;SDS011;6217;48.150;17.142;2024-02-21T03:17:43;4.95;;;2.53;;
12308;SDS011;6217;48.150;17.142;2024-02-21T03:21:49;7.70;;;2.08;;
12308;SDS011;6217;48.150;17.142;2024-02-21T03:25:55;7.95;;;2.10;;
12308;SDS011;6217;48.150;17.142;2024-02-21T03:30:02;8.82;;;2.42;;
12308;SDS011;6217;48.150;17.142;2024-02-21T03:34:10;9.35;;;2.20;;
12308;SDS011;6217;48.150;17.142;2024-02-21T03:38:16;9.90;;;2.22;;
12308;SDS011;6217;48.150;17.142;2024-02-21T03:42:22;9.88;;;3.08;;
12308;SDS011;6217;48.150;17.142;2024-02-21T03:46:28;10.07;;;1.98;;
12308;SDS011;6217;48.150;17.142;2024-02-21T03:50:34;9.75;;;3.28;;
12308;SDS011;6217;48.150;17.142;2024-02-21T03:54:40;8.73;;;2.47;;
12308;SDS011;6217;48.150;17.142;2024-02-21T03:58:46;8.90;;;2.10;;
12308;SDS011;6217;48.150;17.142;2024-02-21T04:02:53;3.85;;;1.75;;
12308;SDS011;6217;48.150;17.142;2024-02-21T04:07:00;8.07;;;2.53;;
12308;SDS011;6217;48.150;17.142;2024-02-21T04:11:07;5.03;;;2.03;;
12308;SDS011;6217;48.150;17.142;2024-02-21T04:15:13;5.10;;;1.95;;
12308;SDS011;6217;48.150;17.142;2024-02-21T04:19:19;8.07;;;3.13;;
12308;SDS011;6217;48.150;17.142;2024-02-21T04:23:25;5.68;;;2.30;;
12308;SDS011;6217;48.150;17.142;2024-02-21T04:27:30;7.22;;;2.25;;
12308;SDS011;6217;48.150;17.142;2024-02-21T04:31:37;9.18;;;2.00;;
12308;SDS011;6217;48.150;17.142;2024-02-21T04:35:43;9.43;;;2.67;;
12308;SDS011;6217;48.150;17.142;2024-02-21T04:39:48;9.63;;;2.47;;
12308;SDS011;6217;48.150;17.142;2024-02-21T04:43:54;5.45;;;2.05;;
12308;SDS011;6217;48.150;17.142;2024-02-21T04:48:00;7.65;;;2.42;;
12308;SDS011;6217;48.150;17.142;2024-02-21T04:52:06;14.00;;;3.15;;
12308;SDS011;6217;48.150;17.142;2024-02-21T04:56:12;7.38;;;2.45;;
12308;SDS011;6217;48.150;17.142;2024-02-21T05:00:18;7.28;;;2.05;;
12308;SDS011;6217;48.150;17.142;2024-02-21T05:04:24;11.52;;;2.00;;
12308;SDS011;6217;48.150;17.142;2024-02-21T05:08:30;8.40;;;2.00;;
12308;SDS011;6217;48.150;17.142;2024-02-21T05:12:36;5.70;;;2.15;;
12308;SDS011;6217;48.150;17.142;2024-02-21T05:16:42;8.73;;;2.20;;
12308;SDS011;6217;48.150;17.142;2024-02-21T05:20:48;12.25;;;3.15;;
12308;SDS011;6217;48.150;17.142;2024-02-21T05:24:54;11.90;;;2.00;;
12308;SDS011;6217;48.150;17.142;2024-02-21T05:29:00;4.32;;;1.98;;
12308;SDS011;6217;48.150;17.142;2024-02-21T05:33:06;5.38;;;2.13;;
12308;SDS011;6217;48.150;17.142;2024-02-21T05:37:12;6.45;;;2.50;;
12308;SDS011;6217;48.150;17.142;2024-02-21T05:41:18;9.65;;;2.10;;
12308;SDS011;6217;48.150;17.142;2024-02-21T05:45:24;7.97;;;2.00;;
12308;SDS011;6217;48.150;17.142;2024-02-21T05:49:29;8.25;;;2.58;;
12308;SDS011;6217;48.150;17.142;2024-02-21T05:53:35;9.60;;;3.03;;
12308;SDS011;6217;48.150;17.142;2024-02-21T05:57:45;10.38;;;3.03;;
12308;SDS011;6217;48.150;17.142;2024-02-21T06:01:55;5.78;;;1.98;;
12308;SDS011;6217;48.150;17.142;2024-02-21T06:06:03;5.18;;;2.65;;
12308;SDS011;6217;48.150;17.142;2024-02-21T06:10:10;6.10;;;2.95;;
12308;SDS011;6217;48.150;17.142;2024-02-21T06:14:16;8.63;;;2.38;;
12308;SDS011;6217;48.150;17.142;2024-02-21T06:18:22;7.30;;;2.95;;
12308;SDS011;6217;48.150;17.142;2024-02-21T06:22:28;4.70;;;2.72;;
12308;SDS011;6217;48.150;17.142;2024-02-21T06:26:35;6.10;;;2.35;;
12308;SDS011;6217;48.150;17.142;2024-02-21T06:30:42;8.77;;;2.28;;
12308;SDS011;6217;48.150;17.142;2024-02-21T06:34:48;8.27;;;2.63;;
12308;SDS011;6217;48.150;17.142;2024-02-21T06:38:54;4.45;;;1.70;;
12308;SDS011;6217;48.150;17.142;2024-02-21T06:43:00;5.70;;;2.10;;
12308;SDS011;6217;48.150;17.142;2024-02-21T06:47:06;8.35;;;3.72;;
12308;SDS011;6217;48.150;17.142;2024-02-21T06:51:14;4.72;;;2.72;;
12308;SDS011;6217;48.150;17.142;2024-02-21T06:55:19;10.55;;;2.63;;
12308;SDS011;6217;48.150;17.142;2024-02-21T06:59:25;6.38;;;2.55;;
12308;SDS011;6217;48.150;17.142;2024-02-21T07:03:31;4.93;;;2.42;;
12308;SDS011;6217;48.150;17.142;2024-02-21T07:07:37;5.05;;;2.42;;
12308;SDS011;6217;48.150;17.142;2024-02-21T07:11:45;6.80;;;2.90;;
12308;SDS011;6217;48.150;17.142;2024-02-21T07:15:51;7.65;;;1.95;;
12308;SDS011;6217;48.150;17.142;2024-02-21T07:19:57;6.85;;;2.20;;
12308;SDS011;6217;48.150;17.142;2024-02-21T07:24:04;5.40;;;1.90;;
12308;SDS011;6217;48.150;17.142;2024-02-21T07:28:11;9.65;;;2.20;;
12308;SDS011;6217;48.150;17.142;2024-02-21T07:32:19;9.43;;;3.17;;
12308;SDS011;6217;48.150;17.142;2024-02-21T07:36:28;3.13;;;1.85;;
12308;SDS011;6217;48.150;17.142;2024-02-21T07:40:35;3.35;;;2.28;;
12308;SDS011;6217;48.150;17.142;2024-02-21T07:44:46;5.57;;;2.22;;
12308;SDS011;6217;48.150;17.142;2024-02-21T07:48:52;8.50;;;2.47;;
12308;SDS011;6217;48.150;17.142;2024-02-21T07:52:58;7.80;;;2.20;;
12308;SDS011;6217;48.150;17.142;2024-02-21T07:57:04;7.40;;;2.58;;
12308;SDS011;6217;48.150;17.142;2024-02-21T08:01:10;7.75;;;2.00;;
12308;SDS011;6217;48.150;17.142;2024-02-21T08:05:17;6.40;;;2.45;;
12308;SDS011;6217;48.150;17.142;2024-02-21T08:09:23;8.48;;;2.08;;
12308;SDS011;6217;48.150;17.142;2024-02-21T08:13:29;3.67;;;1.92;;
12308;SDS011;6217;48.150;17.142;2024-02-21T08:17:35;5.88;;;2.00;;
12308;SDS011;6217;48.150;17.142;2024-02-21T08:21:41;5.43;;;1.98;;
12308;SDS011;6217;48.150;17.142;2024-02-21T08:25:47;8.45;;;2.10;;
12308;SDS011;6217;48.150;17.142;2024-02-21T08:29:53;9.32;;;3.38;;
12308;SDS011;6217;48.150;17.142;2024-02-21T08:33:58;8.20;;;1.80;;
12308;SDS011;6217;48.150;17.142;2024-02-21T08:38:08;3.10;;;1.77;;
12308;SDS011;6217;48.150;17.142;2024-02-21T08:42:14;7.50;;;1.65;;
12308;SDS011;6217;48.150;17.142;2024-02-21T08:46:20;5.57;;;2.55;;
12308;SDS011;6217;48.150;17.142;2024-02-21T08:50:26;4.15;;;1.60;;
12308;SDS011;6217;48.150;17.142;2024-02-21T08:54:32;8.43;;;2.13;;
12308;SDS011;6217;48.150;17.142;2024-02-21T08:58:39;2.05;;;1.33;;
12308;SDS011;6217;48.150;17.142;2024-02-21T09:02:45;6.00;;;1.55;;
12308;SDS011;6217;48.150;17.142;2024-02-21T09:06:51;11.20;;;2.10;;
12308;SDS011;6217;48.150;17.142;2024-02-21T09:10:58;4.55;;;1.67;;
12308;SDS011;6217;48.150;17.142;2024-02-21T09:15:05;3.03;;;2.00;;
12308;SDS011;6217;48.150;17.142;2024-02-21T09:19:11;5.15;;;1.40;;
12308;SDS011;6217;48.150;17.142;2024-02-21T09:23:17;4.57;;;1.35;;
12308;SDS011;6217;48.150;17.142;2024-02-21T09:27:24;7.10;;;2.17;;
12308;SDS011;6217;48.150;17.142;2024-02-21T09:31:30;6.85;;;1.30;;
12308;SDS011;6217;48.150;17.142;2024-02-21T09:35:36;4.15;;;1.40;;
12308;SDS011;6217;48.150;17.142;2024-02-21T09:39:42;6.72;;;1.55;;
12308;SDS011;6217;48.150;17.142;2024-02-21T09:43:49;7.38;;;1.20;;
12308;SDS011;6217;48.150;17.142;2024-02-21T09:52:32;5.95;;;1.40;;
12308;SDS011;6217;48.150;17.142;2024-02-21T09:56:40;4.90;;;1.50;;
12308;SDS011;6217;48.150;17.142;2024-02-21T10:00:46;5.10;;;1.35;;
12308;SDS011;6217;48.150;17.142;2024-02-21T10:04:52;3.28;;;1.70;;
12308;SDS011;6217;48.150;17.142;2024-02-21T10:08:58;4.25;;;1.60;;
12308;SDS011;6217;48.150;17.142;2024-02-21T10:13:04;5.22;;;1.10;;
12308;SDS011;6217;48.150;17.142;2024-02-21T10:17:15;6.25;;;1.25;;
12308;SDS011;6217;48.150;17.142;2024-02-21T10:21:23;5.82;;;1.40;;
12308;SDS011;6217;48.150;17.142;2024-02-21T10:25:29;3.92;;;1.20;;
12308;SDS011;6217;48.150;17.142;2024-02-21T10:29:36;5.57;;;1.30;;
12308;SDS011;6217;48.150;17.142;2024-02-21T10:33:43;3.75;;;1.05;;
12308;SDS011;6217;48.150;17.142;2024-02-21T10:37:49;5.55;;;1.20;;
12308;SDS011;6217;48.150;17.142;2024-02-21T10:41:56;8.02;;;1.80;;
12308;SDS011;6217;48.150;17.142;2024-02-21T10:46:09;5.97;;;1.40;;
12308;SDS011;6217;48.150;17.142;2024-02-21T10:50:17;4.72;;;1.13;;
12308;SDS011;6217;48.150;17.142;2024-02-21T10:54:39;6.07;;;2.15;;
12308;SDS011;6217;48.150;17.142;2024-02-21T10:59:04;3.30;;;1.00;;
12308;SDS011;6217;48.150;17.142;2024-02-21T11:03:11;4.20;;;1.20;;
12308;SDS011;6217;48.150;17.142;2024-02-21T11:07:18;2.72;;;1.23;;
12308;SDS011;6217;48.150;17.142;2024-02-21T11:11:24;7.78;;;1.10;;
12308;SDS011;6217;48.150;17.142;2024-02-21T11:15:30;5.05;;;1.40;;
12308;SDS011;6217;48.150;17.142;2024-02-21T11:19:36;6.05;;;2.05;;
12308;SDS011;6217;48.150;17.142;2024-02-21T11:23:42;4.82;;;1.48;;
12308;SDS011;6217;48.150;17.142;2024-02-21T11:27:48;3.63;;;1.30;;
12308;SDS011;6217;48.150;17.142;2024-02-21T11:31:54;5.93;;;1.88;;
12308;SDS011;6217;48.150;17.142;2024-02-21T11:36:00;3.88;;;1.02;;
12308;SDS011;6217;48.150;17.142;2024-02-21T11:40:09;3.03;;;1.60;;
12308;SDS011;6217;48.150;17.142;2024-02-21T11:44:16;7.20;;;1.17;;
12308;SDS011;6217;48.150;17.142;2024-02-21T11:48:22;5.28;;;1.33;;
12308;SDS011;6217;48.150;17.142;2024-02-21T11:52:27;2.75;;;1.35;;
12308;SDS011;6217;48.150;17.142;2024-02-21T11:56:34;2.13;;;1.20;;
12308;SDS011;6217;48.150;17.142;2024-02-21T12:00:40;3.40;;;1.38;;
12308;SDS011;6217;48.150;17.142;2024-02-21T12:04:46;2.95;;;1.00;;
12308;SDS011;6217;48.150;17.142;2024-02-21T12:08:57;4.10;;;1.33;;
12308;SDS011;6217;48.150;17.142;2024-02-21T12:13:07;5.97;;;1.15;;
12308;SDS011;6217;48.150;17.142;2024-02-21T12:17:16;3.70;;;1.08;;
12308;SDS011;6217;48.150;17.142;2024-02-21T12:21:25;2.40;;;1.10;;
12308;SDS011;6217;48.150;17.142;2024-02-21T12:25:33;4.10;;;1.52;;
12308;SDS011;6217;48.150;17.142;2024-02-21T12:29:39;4.95;;;2.35;;
12308;SDS011;6217;48.150;17.142;2024-02-21T12:33:45;4.25;;;1.05;;
12308;SDS011;6217;48.150;17.142;2024-02-21T12:37:51;3.50;;;1.65;;
12308;SDS011;6217;48.150;17.142;2024-02-21T12:41:57;6.25;;;1.63;;
12308;SDS011;6217;48.150;17.142;2024-02-21T12:46:03;5.10;;;1.70;;
12308;SDS011;6217;48.150;17.142;2024-02-21T12:50:09;4.82;;;1.33;;
12308;SDS011;6217;48.150;17.142;2024-02-21T12:54:15;5.72;;;1.50;;
12308;SDS011;6217;48.150;17.142;2024-02-21T12:58:21;8.65;;;1.58;;
12308;SDS011;6217;48.150;17.142;2024-02-21T13:02:26;3.53;;;1.25;;
12308;SDS011;6217;48.150;17.142;2024-02-21T13:06:33;4.47;;;1.20;;
12308;SDS011;6217;48.150;17.142;2024-02-21T13:10:38;5.43;;;1.48;;
12308;SDS011;6217;48.150;17.142;2024-02-21T13:14:44;7.63;;;1.63;;
12308;SDS011;6217;48.150;17.142;2024-02-21T13:18:50;2.40;;;1.27;;
12308;SDS011;6217;48.150;17.142;2024-02-21T13:22:56;9.70;;;1.33;;
12308;SDS011;6217;48.150;17.142;2024-02-21T13:27:02;3.38;;;1.35;;
12308;SDS011;6217;48.150;17.142;2024-02-21T13:31:08;3.85;;;1.30;;
12308;SDS011;6217;48.150;17.142;2024-02-21T13:35:14;2.20;;;1.20;;
12308;SDS011;6217;48.150;17.142;2024-02-21T13:39:20;4.82;;;1.52;;
12308;SDS011;6217;48.150;17.142;2024-02-21T13:43:26;5.45;;;1.25;;
12308;SDS011;6217;48.150;17.142;2024-02-21T13:47:32;6.63;;;1.33;;
12308;SDS011;6217;48.150;17.142;2024-02-21T13:51:39;5.90;;;1.38;;
12308;SDS011;6217;48.150;17.142;2024-02-21T13:55:48;3.63;;;1.77;;
12308;SDS011;6217;48.150;17.142;2024-02-21T13:59:54;4.85;;;1.13;;
12308;SDS011;6217;48.150;17.142;2024-02-21T14:04:01;3.05;;;1.73;;
12308;SDS011;6217;48.150;17.142;2024-02-21T14:08:07;6.53;;;1.65;;
12308;SDS011;6217;48.150;17.142;2024-02-21T14:12:13;3.90;;;1.08;;
12308;SDS011;6217;48.150;17.142;2024-02-21T14:16:21;5.80;;;1.00;;
12308;SDS011;6217;48.150;17.142;2024-02-21T14:20:27;3.65;;;1.00;;
12308;SDS011;6217;48.150;17.142;2024-02-21T14:24:33;7.45;;;1.30;;
12308;SDS011;6217;48.150;17.142;2024-02-21T14:28:39;6.43;;;1.10;;
12308;SDS011;6217;48.150;17.142;2024-02-21T14:32:45;5.07;;;1.02;;
12308;SDS011;6217;48.150;17.142;2024-02-21T14:36:51;4.13;;;0.80;;
12308;SDS011;6217;48.150;17.142;2024-02-21T14:40:57;5.40;;;0.90;;
12308;SDS011;6217;48.150;17.142;2024-02-21T14:45:03;6.05;;;1.00;;
12308;SDS011;6217;48.150;17.142;2024-02-21T14:49:10;5.20;;;0.82;;
12308;SDS011;6217;48.150;17.142;2024-02-21T14:53:16;2.15;;;1.25;;
12308;SDS011;6217;48.150;17.142;2024-02-21T14:57:23;3.28;;;1.00;;
12308;SDS011;6217;48.150;17.142;2024-02-21T15:01:30;1.85;;;1.17;;
12308;SDS011;6217;48.150;17.142;2024-02-21T15:05:43;4.88;;;1.58;;
12308;SDS011;6217;48.150;17.142;2024-02-21T15:09:49;5.22;;;1.00;;
12308;SDS011;6217;48.150;17.142;2024-02-21T15:13:55;2.13;;;1.65;;
12308;SDS011;6217;48.150;17.142;2024-02-21T15:18:01;5.20;;;0.90;;
12308;SDS011;6217;48.150;17.142;2024-02-21T15:22:08;2.60;;;1.23;;
12308;SDS011;6217;48.150;17.142;2024-02-21T15:26:17;5.35;;;1.67;;
12308;SDS011;6217;48.150;17.142;2024-02-21T15:30:23;2.75;;;1.10;;
12308;SDS011;6217;48.150;17.142;2024-02-21T15:34:28;3.67;;;0.80;;
12308;SDS011;6217;48.150;17.142;2024-02-21T15:38:34;6.63;;;0.90;;
12308;SDS011;6217;48.150;17.142;2024-02-21T15:42:40;4.20;;;0.88;;
12308;SDS011;6217;48.150;17.142;2024-02-21T15:46:46;4.63;;;1.63;;
12308;SDS011;6217;48.150;17.142;2024-02-21T15:50:53;4.82;;;0.90;;
12308;SDS011;6217;48.150;17.142;2024-02-21T15:54:59;3.97;;;1.02;;
12308;SDS011;6217;48.150;17.142;2024-02-21T15:59:05;4.18;;;1.02;;
12308;SDS011;6217;48.150;17.142;2024-02-21T16:03:11;2.78;;;1.05;;
12308;SDS011;6217;48.150;17.142;2024-02-21T16:07:17;6.72;;;1.00;;
12308;SDS011;6217;48.150;17.142;2024-02-21T16:11:23;6.03;;;2.45;;
12308;SDS011;6217;48.150;17.142;2024-02-21T16:15:31;7.95;;;1.00;;
12308;SDS011;6217;48.150;17.142;2024-02-21T16:19:37;4.95;;;1.55;;
12308;SDS011;6217;48.150;17.142;2024-02-21T16:23:43;2.47;;;1.00;;
12308;SDS011;6217;48.150;17.142;2024-02-21T16:27:48;3.58;;;1.38;;
12308;SDS011;6217;48.150;17.142;2024-02-21T16:31:55;3.30;;;1.00;;
12308;SDS011;6217;48.150;17.142;2024-02-21T16:36:01;4.68;;;1.50;;
12308;SDS011;6217;48.150;17.142;2024-02-21T16:40:07;3.72;;;0.98;;
12308;SDS011;6217;48.150;17.142;2024-02-21T16:44:14;5.50;;;1.20;;
12308;SDS011;6217;48.150;17.142;2024-02-21T16:48:21;4.53;;;2.17;;
12308;SDS011;6217;48.150;17.142;2024-02-21T16:52:27;6.35;;;1.30;;
12308;SDS011;6217;48.150;17.142;2024-02-21T16:56:33;5.93;;;1.25;;
12308;SDS011;6217;48.150;17.142;2024-02-21T17:00:41;6.70;;;1.33;;
12308;SDS011;6217;48.150;17.142;2024-02-21T17:04:47;6.05;;;1.30;;
12308;SDS011;6217;48.150;17.142;2024-02-21T17:08:54;7.07;;;1.23;;
12308;SDS011;6217;48.150;17.142;2024-02-21T17:13:02;3.83;;;0.90;;
12308;SDS011;6217;48.150;17.142;2024-02-21T17:17:09;5.63;;;2.10;;
12308;SDS011;6217;48.150;17.142;2024-02-21T17:21:15;6.07;;;1.42;;
12308;SDS011;6217;48.150;17.142;2024-02-21T17:25:21;6.95;;;1.15;;
12308;SDS011;6217;48.150;17.142;2024-02-21T17:29:27;5.45;;;1.77;;
12308;SDS011;6217;48.150;17.142;2024-02-21T17:33:34;5.88;;;1.73;;
12308;SDS011;6217;48.150;17.142;2024-02-21T17:37:40;14.63;;;1.92;;
12308;SDS011;6217;48.150;17.142;2024-02-21T17:41:46;10.05;;;1.77;;
12308;SDS011;6217;48.150;17.142;2024-02-21T17:45:52;11.85;;;2.20;;
12308;SDS011;6217;48.150;17.142;2024-02-21T17:50:01;8.48;;;1.83;;
12308;SDS011;6217;48.150;17.142;2024-02-21T17:54:07;6.70;;;1.95;;
12308;SDS011;6217;48.150;17.142;2024-02-21T17:58:14;6.47;;;2.58;;
12308;SDS011;6217;48.150;17.142;2024-02-21T18:02:20;9.18;;;2.20;;
12308;SDS011;6217;48.150;17.142;2024-02-21T18:06:28;9.13;;;2.08;;
12308;SDS011;6217;48.150;17.142;2024-02-21T18:10:34;7.78;;;3.05;;
12308;SDS011;6217;48.150;17.142;2024-02-21T18:14:43;9.23;;;2.70;;
12308;SDS011;6217;48.150;17.142;2024-02-21T18:18:49;9.63;;;2.28;;
12308;SDS011;6217;48.150;17.142;2024-02-21T18:22:55;11.40;;;3.55;;
12308;SDS011;6217;48.150;17.142;2024-02-21T18:27:01;8.82;;;3.25;;
12308;SDS011;6217;48.150;17.142;2024-02-21T18:31:08;7.93;;;3.05;;
12308;SDS011;6217;48.150;17.142;2024-02-21T18:35:14;9.52;;;2.60;;
12308;SDS011;6217;48.150;17.142;2024-02-21T18:39:21;11.90;;;2.60;;
12308;SDS011;6217;48.150;17.142;2024-02-21T18:43:28;7.78;;;2.40;;
12308;SDS011;6217;48.150;17.142;2024-02-21T18:47:34;13.00;;;4.20;;
12308;SDS011;6217;48.150;17.142;2024-02-21T18:51:40;9.60;;;3.13;;
12308;SDS011;6217;48.150;17.142;2024-02-21T18:55:46;9.20;;;4.10;;
12308;SDS011;6217;48.150;17.142;2024-02-21T18:59:52;11.73;;;5.68;;
12308;SDS011;6217;48.150;17.142;2024-02-21T19:03:59;11.93;;;6.03;;
12308;SDS011;6217;48.150;17.142;2024-02-21T19:08:05;12.95;;;8.95;;
12308;SDS011;6217;48.150;17.142;2024-02-21T19:12:11;16.63;;;9.18;;
12308;SDS011;6217;48.150;17.142;2024-02-21T19:16:17;20.05;;;8.70;;
12308;SDS011;6217;48.150;17.142;2024-02-21T19:20:23;18.60;;;9.15;;
12308;SDS011;6217;48.150;17.142;2024-02-21T19:24:32;21.92;;;9.65;;
12308;SDS011;6217;48.150;17.142;2024-02-21T19:28:38;17.30;;;9.18;;
12308;SDS011;6217;48.150;17.142;2024-02-21T19:32:44;21.63;;;9.32;;
12308;SDS011;6217;48.150;17.142;2024-02-21T19:36:50;17.80;;;10.63;;
12308;SDS011;6217;48.150;17.142;2024-02-21T19:40:56;18.70;;;9.15;;
12308;SDS011;6217;48.150;17.142;2024-02-21T19:45:02;16.65;;;8.35;;
12308;SDS011;6217;48.150;17.142;2024-02-21T19:49:09;12.15;;;6.68;;
12308;SDS011;6217;48.150;17.142;2024-02-21T19:53:15;18.48;;;7.95;;
12308;SDS011;6217;48.150;17.142;2024-02-21T19:57:21;11.57;;;6.70;;
12308;SDS011;6217;48.150;17.142;2024-02-21T20:01:27;12.63;;;5.45;;
12308;SDS011;6217;48.150;17.142;2024-02-21T20:05:35;12.80;;;7.68;;
12308;SDS011;6217;48.150;17.142;2024-02-21T20:09:42;13.20;;;6.40;;
12308;SDS011;6217;48.150;17.142;2024-02-21T20:13:48;12.15;;;6.85;;
12308;SDS011;6217;48.150;17.142;2024-02-21T20:17:55;16.80;;;7.80;;
12308;SDS011;6217;48.150;17.142;2024-02-21T20:22:01;14.98;;;8.75;;
12308;SDS011;6217;48.150;17.142;2024-02-21T20:26:08;15.50;;;7.28;;
12308;SDS011;6217;48.150;17.142;2024-02-21T20:30:14;12.77;;;6.63;;
12308;SDS011;6217;48.150;17.142;2024-02-21T20:34:21;8.00;;;5.75;;
12308;SDS011;6217;48.150;17.142;2024-02-21T20:38:29;17.60;;;6.30;;
12308;SDS011;6217;48.150;17.142;2024-02-21T20:42:38;15.32;;;7.97;;
12308;SDS011;6217;48.150;17.142;2024-02-21T20:46:54;11.55;;;5.82;;
12308;SDS011;6217;48.150;17.142;2024-02-21T20:51:00;12.23;;;5.82;;
12308;SDS011;6217;48.150;17.142;2024-02-21T20:55:06;14.18;;;6.07;;
12308;SDS011;6217;48.150;17.142;2024-02-21T20:59:12;16.25;;;7.68;;
12308;SDS011;6217;48.150;17.142;2024-02-21T21:03:23;15.35;;;5.45;;
12308;SDS011;6217;48.150;17.142;2024-02-21T21:07:30;16.70;;;6.68;;
12308;SDS011;6217;48.150;17.142;2024-02-21T21:11:36;8.15;;;5.20;;
12308;SDS011;6217;48.150;17.142;2024-02-21T21:15:42;15.60;;;6.10;;
12308;SDS011;6217;48.150;17.142;2024-02-21T21:19:48;13.95;;;6.60;;
12308;SDS011;6217;48.150;17.142;2024-02-21T21:23:55;15.50;;;6.57;;
12308;SDS011;6217;48.150;17.142;2024-02-21T21:28:01;19.33;;;7.13;;
12308;SDS011;6217;48.150;17.142;2024-02-21T21:32:09;14.13;;;6.07;;
12308;SDS011;6217;48.150;17.142;2024-02-21T21:36:16;13.27;;;6.75;;
12308;SDS011;6217;48.150;17.142;2024-02-21T21:40:22;16.90;;;7.43;;
12308;SDS011;6217;48.150;17.142;2024-02-21T21:44:29;15.85;;;9.23;;
12308;SDS011;6217;48.150;17.142;2024-02-21T21:48:35;21.63;;;10.77;;
12308;SDS011;6217;48.150;17.142;2024-02-21T21:52:41;11.23;;;7.72;;
12308;SDS011;6217;48.150;17.142;2024-02-21T21:56:48;12.88;;;9.57;;
12308;SDS011;6217;48.150;17.142;2024-02-21T22:00:54;17.10;;;9.82;;
12308;SDS011;6217;48.150;17.142;2024-02-21T22:05:00;27.00;;;10.73;;
12308;SDS011;6217;48.150;17.142;2024-02-21T22:09:06;18.33;;;9.45;;
12308;SDS011;6217;48.150;17.142;2024-02-21T22:13:14;14.88;;;8.82;;
12308;SDS011;6217;48.150;17.142;2024-02-21T22:17:20;14.70;;;7.78;;
12308;SDS011;6217;48.150;17.142;2024-02-21T22:21:26;25.60;;;9.88;;
12308;SDS011;6217;48.150;17.142;2024-02-21T22:25:32;17.10;;;8.80;;
12308;SDS011;6217;48.150;17.142;2024-02-21T22:29:38;17.90;;;8.45;;
12308;SDS011;6217;48.150;17.142;2024-02-21T22:33:44;13.48;;;8.27;;
12308;SDS011;6217;48.150;17.142;2024-02-21T22:37:50;12.57;;;8.93;;
12308;SDS011;6217;48.150;17.142;2024-02-21T22:41:56;15.20;;;8.43;;
12308;SDS011;6217;48.150;17.142;2024-02-21T22:46:03;12.00;;;8.02;;
12308;SDS011;6217;48.150;17.142;2024-02-21T22:50:10;18.98;;;8.57;;
12308;SDS011;6217;48.150;17.142;2024-02-21T22:54:16;14.10;;;7.43;;
12308;SDS011;6217;48.150;17.142;2024-02-21T22:58:24;13.15;;;9.55;;
12308;SDS011;6217;48.150;17.142;2024-02-21T23:02:30;15.80;;;8.40;;
12308;SDS011;6217;48.150;17.142;2024-02-21T23:06:36;13.65;;;8.95;;
12308;SDS011;6217;48.150;17.142;2024-02-21T23:10:44;15.95;;;8.48;;
12308;SDS011;6217;48.150;17.142;2024-02-21T23:14:52;12.00;;;6.07;;
12308;SDS011;6217;48.150;17.142;2024-02-21T23:18:58;11.05;;;7.10;;
12308;SDS011;6217;48.150;17.142;2024-02-21T23:23:04;11.82;;;7.35;;
12308;SDS011;6217;48.150;17.142;2024-02-21T23:27:11;16.88;;;7.70;;
12308;SDS011;6217;48.150;17.142;2024-02-21T23:31:17;12.95;;;7.50;;
12308;SDS011;6217;48.150;17.142;2024-02-21T23:35:25;11.93;;;6.50;;
12308;SDS011;6217;48.150;17.142;2024-02-21T23:39:32;12.75;;;6.78;;
12308;SDS011;6217;48.150;17.142;2024-02-21T23:43:42;18.45;;;8.98;;
12308;SDS011;6217;48.150;17.142;2024-02-21T23:47:49;13.93;;;7.50;;
12308;SDS011;6217;48.150;17.142;2024-02-21T23:51:54;15.35;;;7.90;;
12308;SDS011;6217;48.150;17.142;2024-02-21T23:56:00;11.00;;;7.53;;
